Time;durP1;ratioP1;P1;durP2;ratioP2;P2;SDS_P1;SDS_P2;PMS_P1;PMS_P2;Temp;Humidity;BMP_temperature;BMP_pressure;BME280_temperature;BME280_humidity;BME280_pressure;Samples;Min_cycle;Max_cycle;Signal;HPM_P1;HPM_P2
2023/04/02 00:01:22;;;;;;;2.83;1.30;;;;;;;9.72;100.00;99506.09;5019954;28;20053;-93
2023/04/02 00:04:21;;;;;;;2.28;1.55;;;;;;;9.31;100.00;99450.31;5034721;28;20065;-91
2023/04/02 00:07:40;;;;;;;2.38;1.25;;;;;;;9.25;100.00;99439.25;5033506;28;20040;-92
2023/04/02 00:10:27;;;;;;;2.40;1.30;;;;;;;9.36;100.00;99465.91;5045338;28;20053;-91
2023/04/02 00:13:36;;;;;;;2.55;1.30;;;;;;;9.57;100.00;99508.78;5041426;28;20061;-93
2023/04/02 00:16:20;;;;;;;2.08;1.27;;;;;;;9.43;100.00;99483.97;5068844;28;20029;-93
2023/04/02 00:18:54;;;;;;;1.67;0.98;;;;;;;9.70;100.00;99530.91;5054989;28;20057;-93
2023/04/02 00:21:29;;;;;;;2.10;1.20;;;;;;;9.18;100.00;99456.38;5066754;28;20084;-91
2023/04/02 00:24:06;;;;;;;1.67;1.27;;;;;;;9.29;100.00;99472.47;5061196;28;20069;-92
2023/04/02 00:26:41;;;;;;;2.03;1.30;;;;;;;9.41;100.00;99509.63;5033606;28;20075;-92
2023/04/02 00:29:18;;;;;;;2.20;1.33;;;;;;;9.23;100.00;99480.75;5035151;28;20055;-93
2023/04/02 00:31:49;;;;;;;2.65;1.65;;;;;;;9.31;100.00;99502.28;5058788;28;20060;-93
2023/04/02 00:34:32;;;;;;;2.17;1.40;;;;;;;9.24;100.00;99504.44;5038426;28;20037;-92
2023/04/02 00:37:03;;;;;;;1.75;1.20;;;;;;;9.58;100.00;99555.41;5051322;28;20064;-93
2023/04/02 00:39:37;;;;;;;2.78;1.73;;;;;;;9.21;100.00;99480.84;5030635;28;20051;-93
2023/04/02 00:42:21;;;;;;;3.28;1.70;;;;;;;9.41;100.00;99508.78;5045650;28;20104;-91
2023/04/02 00:45:27;;;;;;;1.63;1.30;;;;;;;9.49;100.00;99531.19;5034648;28;20041;-92
2023/04/02 00:48:43;;;;;;;1.73;1.45;;;;;;;9.20;100.00;99496.75;5052689;28;20048;-93
2023/04/02 00:51:27;;;;;;;2.00;1.80;;;;;;;9.57;100.00;99559.00;5052188;28;20063;-93
2023/04/02 00:54:17;;;;;;;3.15;1.83;;;;;;;9.00;100.00;99466.16;5047515;28;20151;-92
2023/04/02 00:57:01;;;;;;;2.17;1.95;;;;;;;9.31;100.00;99524.28;5045738;28;20051;-93
2023/04/02 00:59:34;;;;;;;3.45;2.20;;;;;;;9.57;100.00;99557.19;5050339;28;20075;-89
2023/04/02 01:02:28;;;;;;;2.58;2.10;;;;;;;9.60;100.00;99564.09;5064667;28;20045;-92
2023/04/02 01:05:16;;;;;;;3.20;2.47;;;;;;;9.63;100.00;99572.69;5048123;28;20068;-90
2023/04/02 01:08:32;;;;;;;2.63;2.25;;;;;;;9.44;100.00;99535.88;5045765;28;20045;-92
2023/04/02 01:11:31;;;;;;;2.55;1.80;;;;;;;9.62;100.00;99581.56;5039454;28;20124;-91
2023/04/02 01:14:08;;;;;;;3.97;1.98;;;;;;;9.62;100.00;99578.91;5039088;28;20551;-93
2023/04/02 01:16:52;;;;;;;3.75;2.33;;;;;;;9.17;100.00;99499.56;5046800;28;20069;-93
2023/04/02 01:19:43;;;;;;;;;;;;;;;9.62;100.00;99584.19;5050560;28;20052;-91
2023/04/02 01:22:47;;;;;;;4.53;2.33;;;;;;;9.54;100.00;99559.16;5048101;28;19923;-92
2023/04/02 01:25:41;;;;;;;3.05;1.90;;;;;;;9.67;100.00;99570.72;5016348;28;20046;-93
2023/04/02 01:28:32;;;;;;;3.33;2.22;;;;;;;9.37;100.00;99529.22;5047236;28;20258;-90
2023/04/02 01:31:05;;;;;;;2.75;2.00;;;;;;;9.11;100.00;99477.84;5057171;28;20064;-91
2023/04/02 01:33:40;;;;;;;2.22;2.03;;;;;;;9.48;100.00;99547.13;5059643;28;20045;-92
2023/04/02 01:36:36;;;;;;;4.78;2.70;;;;;;;9.11;100.00;99491.06;5043566;28;20049;-92
2023/04/02 01:39:35;;;;;;;3.40;2.58;;;;;;;9.60;100.00;99583.44;5039848;28;20101;-91
2023/04/02 01:42:24;;;;;;;3.50;2.90;;;;;;;9.63;100.00;99600.91;5046857;28;20033;-92
2023/04/02 01:44:59;;;;;;;3.72;2.80;;;;;;;9.31;100.00;99553.34;5059670;28;20053;-92
2023/04/02 01:47:31;;;;;;;3.65;2.78;;;;;;;9.23;100.00;99545.00;5057944;28;20037;-92
2023/04/02 01:50:21;;;;;;;3.65;3.13;;;;;;;9.58;100.00;99617.06;5031582;28;20060;-92
2023/04/02 01:52:54;;;;;;;3.88;3.00;;;;;;;9.32;100.00;99568.25;5034313;28;20053;-91
2023/04/02 01:55:58;;;;;;;5.95;3.78;;;;;;;9.59;100.00;99616.13;5041344;28;20040;-90
2023/04/02 01:58:31;;;;;;;5.35;3.58;;;;;;;9.56;100.00;99623.34;5043104;28;20049;-92
2023/04/02 02:01:13;;;;;;;4.05;3.63;;;;;;;9.04;100.00;99521.38;5032875;28;20073;-92
2023/04/02 02:03:49;;;;;;;6.20;3.90;;;;;;;9.57;100.00;99628.56;5040207;28;20041;-92
2023/04/02 02:06:19;;;;;;;4.53;3.60;;;;;;;8.96;100.00;99520.97;5040870;28;20109;-92
2023/04/02 02:08:57;;;;;;;5.72;3.75;;;;;;;9.50;100.00;99627.19;5037850;28;20044;-93
2023/04/02 02:11:32;;;;;;;5.07;4.57;;;;;;;9.25;100.00;99581.91;5034116;28;20132;-94
2023/04/02 02:14:14;;;;;;;4.68;4.10;;;;;;;9.45;100.00;99634.50;5050363;28;20069;-95
2023/04/02 02:16:44;;;;;;;8.07;4.82;;;;;;;9.20;100.00;99587.44;5033972;28;20071;-91
2023/04/02 02:19:20;;;;;;;4.90;4.40;;;;;;;9.04;100.00;99568.91;5039398;28;20053;-90
2023/04/02 02:21:51;;;;;;;5.38;4.80;;;;;;;9.13;100.00;99586.88;5044477;28;20041;-91
2023/04/02 02:24:23;;;;;;;;;;;;;;;9.44;100.00;99635.47;5050674;28;20128;-90
2023/04/02 02:27:15;;;;;;;5.47;4.90;;;;;;;9.37;100.00;99628.78;5038185;28;19923;-90
2023/04/02 02:29:45;;;;;;;8.60;5.32;;;;;;;8.87;100.00;99541.69;5024945;28;20138;-90
2023/04/02 02:32:19;;;;;;;7.50;5.30;;;;;;;8.81;100.00;99536.78;5047759;28;20095;-88
2023/04/02 02:35:01;;;;;;;7.05;5.03;;;;;;;8.84;100.00;99574.38;5041116;28;20103;-89
2023/04/02 02:37:34;;;;;;;7.35;5.20;;;;;;;8.62;100.00;99556.22;5052597;28;20045;-87
2023/04/02 02:40:07;;;;;;;6.22;5.30;;;;;;;9.18;100.00;99655.31;5045759;28;20037;-88
2023/04/02 02:42:50;;;;;;;7.25;5.60;;;;;;;8.89;100.00;99621.69;5046041;28;20147;-92
2023/04/02 02:45:24;;;;;;;8.98;5.70;;;;;;;9.05;100.00;99665.69;5038194;28;20052;-89
2023/04/02 02:48:01;;;;;;;6.43;5.20;;;;;;;8.79;100.00;99614.25;5035628;28;20037;-89
2023/04/02 02:50:42;;;;;;;9.07;5.60;;;;;;;9.15;100.00;99671.34;5039265;28;20079;-91
2023/04/02 02:53:26;;;;;;;6.60;5.53;;;;;;;9.06;100.00;99642.78;5038473;28;20079;-93
2023/04/02 02:56:06;;;;;;;6.10;5.32;;;;;;;8.67;100.00;99571.78;5055098;28;20120;-94
2023/04/02 02:58:45;;;;;;;8.80;5.68;;;;;;;9.33;100.00;99680.94;5039398;28;20102;-96
2023/04/02 03:01:18;;;;;;;8.70;5.72;;;;;;;9.34;100.00;99687.94;5047345;28;20051;-93
2023/04/02 03:04:24;;;;;;;6.45;5.38;;;;;;;9.40;100.00;99692.91;5055224;28;20041;-92
2023/04/02 03:07:08;;;;;;;6.28;5.25;;;;;;;8.76;100.00;99584.53;5039400;28;20048;-92
2023/04/02 03:10:04;;;;;;;7.40;5.50;;;;;;;9.36;100.00;99703.69;5055697;28;20045;-92
2023/04/02 03:13:21;;;;;;;6.93;5.70;;;;;;;8.75;100.00;99591.59;5063732;28;20559;-91
2023/04/02 03:16:01;;;;;;;5.93;5.30;;;;;;;8.77;100.00;99597.63;5028429;28;20041;-93
2023/04/02 03:18:45;;;;;;;6.85;5.30;;;;;;;9.12;100.00;99658.31;5036240;28;20135;-94
2023/04/02 03:21:38;;;;;;;6.72;5.63;;;;;;;9.39;100.00;99714.97;5036625;28;20033;-92
2023/04/02 03:24:09;;;;;;;8.43;5.82;;;;;;;9.27;100.00;99691.00;5037045;28;20080;-95
2023/04/02 03:26:41;;;;;;;6.70;5.60;;;;;;;9.37;100.00;99722.13;5027108;28;20058;-93
2023/04/02 03:29:19;;;;;;;6.13;4.80;;;;;;;9.09;100.00;99682.25;5031986;28;20068;-92
2023/04/02 03:32:02;;;;;;;7.00;5.72;;;;;;;8.96;100.00;99676.75;5041689;28;20029;-87
2023/04/02 03:34:46;;;;;;;18.85;11.73;;;;;;;9.08;100.00;99697.22;5060733;28;20051;-86
2023/04/02 03:37:25;;;;;;;9.25;6.35;;;;;;;9.33;100.00;99736.41;5057390;28;20048;-90
2023/04/02 03:40:00;;;;;;;5.88;4.80;;;;;;;9.37;100.00;99745.03;5048364;28;20029;-90
2023/04/02 03:43:03;;;;;;;6.97;5.38;;;;;;;9.29;100.00;99750.72;5046040;28;20135;-87
2023/04/02 03:45:43;;;;;;;8.65;5.53;;;;;;;8.60;100.00;99663.63;5050371;28;20051;-94
2023/04/02 03:48:18;;;;;;;7.97;5.68;;;;;;;8.40;100.00;99650.56;5038059;28;20045;-94
2023/04/02 03:50:51;;;;;;;8.20;6.13;;;;;;;8.50;100.00;99675.56;5038838;28;20049;-92
2023/04/02 03:53:24;;;;;;;7.95;6.75;;;;;;;8.64;100.00;99714.47;5053209;28;20055;-90
2023/04/02 03:55:52;;;;;;;7.55;5.82;;;;;;;8.40;100.00;99685.72;5031387;28;20475;-92
2023/04/02 03:58:24;;;;;;;10.40;6.50;;;;;;;8.26;100.00;99664.41;5005520;28;20733;-93
2023/04/02 04:01:12;;;;;;;9.50;6.60;;;;;;;8.47;100.00;99698.63;5031832;28;20052;-93
2023/04/02 04:03:51;;;;;;;8.75;5.85;;;;;;;8.75;100.00;99736.75;5032819;28;20045;-93
2023/04/02 04:06:28;;;;;;;7.97;6.38;;;;;;;9.07;100.00;99773.91;5029091;28;20389;-91
2023/04/02 04:09:07;;;;;;;9.30;5.90;;;;;;;9.15;100.00;99783.13;5048723;28;20494;-93
2023/04/02 04:11:42;;;;;;;8.60;5.97;;;;;;;8.67;100.00;99703.75;5053249;28;20051;-90
2023/04/02 04:14:19;;;;;;;7.88;6.05;;;;;;;8.67;100.00;99707.25;5051043;28;20169;-88
2023/04/02 04:17:08;;;;;;;7.47;6.53;;;;;;;9.00;100.00;99761.94;5046496;28;20057;-90
2023/04/02 04:19:47;;;;;;;8.38;6.50;;;;;;;8.99;100.00;99783.97;5050847;28;20038;-88
2023/04/02 04:22:40;;;;;;;8.98;6.38;;;;;;;8.66;100.00;99747.75;5048614;28;20039;-93
2023/04/02 04:25:38;;;;;;;9.45;6.40;;;;;;;8.64;100.00;99743.50;5043353;28;20052;-92
2023/04/02 04:28:57;;;;;;;9.07;6.60;;;;;;;8.31;100.00;99698.50;5020634;28;20052;-93
2023/04/02 04:31:38;;;;;;;9.48;6.57;;;;;;;8.93;100.00;99808.06;5040223;28;20072;-90
2023/04/02 04:34:15;;;;;;;8.50;6.40;;;;;;;8.40;100.00;99733.22;5049790;28;20036;-90
2023/04/02 04:36:56;;;;;;;11.82;7.43;;;;;;;8.27;100.00;99725.94;5022988;28;20053;-92
2023/04/02 04:40:05;;;;;;;11.80;7.88;;;;;;;8.44;100.00;99768.22;5040864;28;20038;-92
2023/04/02 04:42:39;;;;;;;9.85;7.22;;;;;;;8.57;100.00;99790.44;5030429;28;20037;-93
2023/04/02 04:45:29;;;;;;;11.55;7.25;;;;;;;8.53;100.00;99783.59;5035333;28;20045;-94
2023/04/02 04:48:07;;;;;;;11.65;7.65;;;;;;;8.21;100.00;99731.50;5039518;28;20124;-92
2023/04/02 04:51:04;;;;;;;10.20;7.22;;;;;;;8.84;100.00;99835.75;5048769;28;20033;-90
2023/04/02 04:53:33;;;;;;;11.55;7.68;;;;;;;8.83;100.00;99838.47;5032209;28;20024;-90
2023/04/02 04:56:09;;;;;;;9.80;7.03;;;;;;;8.31;100.00;99757.38;5049528;28;20044;-95
2023/04/02 04:58:52;;;;;;;12.57;7.90;;;;;;;8.90;100.00;99850.47;5012849;28;20065;-95
2023/04/02 05:01:32;;;;;;;9.27;7.25;;;;;;;8.69;100.00;99825.94;5034009;28;20109;-90
2023/04/02 05:04:18;;;;;;;9.45;7.35;;;;;;;8.88;100.00;99863.72;5064645;28;20033;-91
2023/04/02 05:07:00;;;;;;;10.02;7.95;;;;;;;8.83;100.00;99864.88;5046145;28;20064;-93
2023/04/02 05:09:35;;;;;;;11.32;7.65;;;;;;;8.71;100.00;99846.06;5044110;28;20057;-92
2023/04/02 05:12:26;;;;;;;12.38;7.72;;;;;;;8.63;100.00;99837.69;5045893;28;20045;-94
2023/04/02 05:15:03;;;;;;;11.70;8.48;;;;;;;8.44;100.00;99805.16;5044279;28;20051;-92
2023/04/02 05:18:06;;;;;;;12.82;7.97;;;;;;;8.90;100.00;99884.78;5058456;28;20041;-93
2023/04/02 05:20:46;;;;;;;13.27;7.70;;;;;;;8.58;100.00;99815.91;5037773;28;20047;-94
2023/04/02 05:23:23;;;;;;;11.48;7.50;;;;;;;8.93;100.00;99882.88;5056713;28;20048;-91
2023/04/02 05:26:11;;;;;;;10.43;7.38;;;;;;;8.73;100.00;99861.84;5048802;28;20033;-91
2023/04/02 05:28:58;;;;;;;10.02;7.85;;;;;;;8.92;100.00;99894.34;5030092;28;20045;-90
2023/04/02 05:31:47;;;;;;;10.90;7.80;;;;;;;8.36;100.00;99804.66;5044250;28;20035;-89
2023/04/02 05:34:28;;;;;;;11.32;7.88;;;;;;;8.61;100.00;99850.09;5046149;28;20049;-88
2023/04/02 05:36:58;;;;;;;11.75;8.30;;;;;;;8.72;100.00;99874.19;5046935;28;20094;-91
2023/04/02 05:39:33;;;;;;;12.10;7.75;;;;;;;8.94;100.00;99907.47;5027137;28;20075;-87
2023/04/02 05:42:04;;;;;;;12.20;8.10;;;;;;;8.59;100.00;99861.63;5034350;28;20052;-94
2023/04/02 05:44:36;;;;;;;11.13;8.48;;;;;;;8.57;100.00;99859.06;5029561;28;20102;-94
2023/04/02 05:47:18;;;;;;;14.50;8.25;;;;;;;8.89;100.00;99920.91;5019545;28;20042;-94
2023/04/02 05:50:15;;;;;;;13.52;8.63;;;;;;;8.84;100.00;99932.59;5034731;28;20030;-92
2023/04/02 05:52:50;;;;;;;11.20;7.95;;;;;;;8.84;100.00;99940.50;5035769;28;20054;-93
2023/04/02 05:55:31;;;;;;;14.40;8.88;;;;;;;8.78;100.00;99939.91;5017567;28;20144;-94
2023/04/02 05:58:12;;;;;;;13.38;8.60;;;;;;;8.50;100.00;99902.50;5011828;28;20057;-93
2023/04/02 06:01:17;;;;;;;14.85;9.15;;;;;;;8.49;100.00;99908.72;5030878;28;20607;-93
2023/04/02 06:04:25;;;;;;;13.30;7.93;;;;;;;8.74;100.00;99959.44;5011982;28;20446;-95
2023/04/02 06:07:28;;;;;;;14.18;8.73;;;;;;;8.76;100.00;99960.22;5012989;28;20098;-95
2023/04/02 06:10:23;;;;;;;16.40;10.05;;;;;;;8.76;100.00;99962.88;5014794;28;20080;-93
2023/04/02 06:13:05;;;;;;;15.77;10.40;;;;;;;8.74;100.00;99956.78;5015645;28;20061;-94
2023/04/02 06:15:37;;;;;;;15.63;10.05;;;;;;;8.37;100.00;99899.56;5010028;28;20397;-93
2023/04/02 06:18:13;;;;;;;15.90;10.55;;;;;;;8.59;100.00;99930.25;5011433;28;20579;-94
2023/04/02 06:20:43;;;;;;;13.90;9.85;;;;;;;8.63;100.00;99943.25;5008725;28;20107;-94
2023/04/02 06:23:49;;;;;;;6.28;4.68;;;;;;;8.87;100.00;100006.38;5030053;28;20137;-93
2023/04/02 06:26:32;;;;;;;2.97;1.60;;;;;;;8.64;100.00;100018.88;5029813;28;20120;-89
2023/04/02 06:29:26;;;;;;;1.92;1.08;;;;;;;8.45;100.00;100012.69;5035614;28;20053;-91
2023/04/02 06:32:03;;;;;;;1.00;0.80;;;;;;;8.13;100.00;99989.47;5017256;28;20065;-92
2023/04/02 06:34:31;;;;;;;1.02;0.80;;;;;;;8.23;100.00;100036.47;5043370;28;20053;-90
2023/04/02 06:37:03;;;;;;;2.33;0.70;;;;;;;7.98;100.00;100018.22;5041070;28;20072;-92
2023/04/02 06:39:30;;;;;;;1.58;0.60;;;;;;;7.99;100.00;100042.78;5039072;28;20065;-90
2023/04/02 06:42:12;;;;;;;0.50;0.50;;;;;;;7.94;100.00;100048.25;5044814;28;20486;-93
2023/04/02 06:44:39;;;;;;;1.85;0.60;;;;;;;7.87;100.00;100049.41;5032311;28;20507;-94
2023/04/02 06:47:41;;;;;;;0.98;0.55;;;;;;;7.67;100.00;100036.22;5028052;28;20041;-91
2023/04/02 06:50:15;;;;;;;0.65;0.63;;;;;;;7.28;100.00;99984.19;5038986;28;20041;-93
2023/04/02 06:52:50;;;;;;;0.68;0.60;;;;;;;7.48;100.00;100061.59;5035097;28;20064;-92
2023/04/02 06:55:27;;;;;;;0.50;0.50;;;;;;;7.37;100.00;100064.66;5043332;28;20068;-90
2023/04/02 06:58:01;;;;;;;1.58;0.65;;;;;;;7.26;100.00;100064.19;5045236;28;20045;-91
2023/04/02 07:00:40;;;;;;;0.65;0.65;;;;;;;7.19;100.00;100065.34;5045463;28;20128;-91
2023/04/02 07:03:18;;;;;;;1.33;0.63;;;;;;;7.01;100.00;100044.06;5035210;28;20065;-92
2023/04/02 07:05:45;;;;;;;1.83;0.98;;;;;;;7.26;100.00;100091.38;5038376;28;20033;-94
2023/04/02 07:08:13;;;;;;;1.20;0.77;;;;;;;7.20;100.00;100090.78;5045884;28;20084;-92
2023/04/02 07:10:43;;;;;;;0.50;0.43;;;;;;;7.08;100.00;100092.09;5030265;28;20088;-89
2023/04/02 07:13:21;;;;;;;0.60;0.60;;;;;;;6.96;100.00;100103.94;5052886;28;20049;-90
2023/04/02 07:15:53;;;;;;;1.10;0.70;;;;;;;6.69;100.00;100063.69;5037983;28;20227;-90
2023/04/02 07:18:26;;;;;;;0.70;0.70;;;;;;;7.10;100.00;100145.53;5057880;28;20059;-90
2023/04/02 07:20:53;;;;;;;0.60;0.60;;;;;;;6.86;100.00;100115.72;5050492;28;20041;-89
2023/04/02 07:23:20;;;;;;;1.15;0.73;;;;;;;6.97;100.00;100142.50;5035691;28;20051;-90
2023/04/02 07:25:52;;;;;;;0.60;0.60;;;;;;;7.08;100.00;100164.97;5038077;28;20056;-90
2023/04/02 07:28:19;;;;;;;1.33;0.50;;;;;;;7.06;100.00;100178.19;5053449;28;20081;-90
2023/04/02 07:30:49;;;;;;;1.45;0.80;;;;;;;7.07;100.00;100173.78;5050735;28;20059;-87
2023/04/02 07:33:19;;;;;;;1.08;0.80;;;;;;;7.13;100.00;100181.44;5053098;28;20057;-90
2023/04/02 07:35:46;;;;;;;0.60;0.60;;;;;;;7.15;100.00;100192.78;5038283;28;20493;-89
2023/04/02 07:38:14;;;;;;;1.05;0.60;;;;;;;7.11;100.00;100192.03;5034692;28;20052;-89
2023/04/02 07:40:40;;;;;;;2.15;0.57;;;;;;;7.04;100.00;100208.97;5034742;28;20045;-89
2023/04/02 07:43:07;;;;;;;0.50;0.50;;;;;;;6.91;100.00;100186.63;5041798;28;20044;-89
2023/04/02 07:45:34;;;;;;;0.70;0.47;;;;;;;7.03;100.00;100207.25;5049584;28;20044;-89
2023/04/02 07:48:08;;;;;;;0.68;0.55;;;;;;;6.79;100.00;100176.50;5038861;28;20049;-90
2023/04/02 07:50:35;;;;;;;0.60;0.60;;;;;;;6.79;100.00;100190.53;5053807;28;20076;-92
2023/04/02 07:53:03;;;;;;;0.68;0.50;;;;;;;6.97;100.00;100221.47;5036482;28;20037;-88
2023/04/02 07:55:32;;;;;;;0.50;0.50;;;;;;;6.79;100.00;100203.69;5029445;28;20045;-86
2023/04/02 07:57:59;;;;;;;0.50;0.50;;;;;;;6.95;100.00;100233.81;5033209;28;20522;-91
2023/04/02 08:00:27;;;;;;;1.38;0.60;;;;;;;6.79;100.00;100194.94;5028913;28;20052;-89
2023/04/02 08:02:56;;;;;;;1.02;0.50;;;;;;;6.93;100.00;100227.75;5026337;28;20037;-85
2023/04/02 08:05:25;;;;;;;0.88;0.43;;;;;;;6.74;100.00;100210.03;5030913;28;20033;-89
2023/04/02 08:07:55;;;;;;;0.93;0.50;;;;;;;6.88;100.00;100252.53;5034716;28;20144;-88
2023/04/02 08:10:23;;;;;;;0.60;0.60;;;;;;;6.79;100.00;100261.59;5036508;28;20490;-90
2023/04/02 08:12:51;;;;;;;0.80;0.50;;;;;;;6.58;100.00;100234.25;5020657;28;20071;-91
2023/04/02 08:15:18;;;;;;;0.80;0.80;;;;;;;6.77;100.00;100281.00;5031015;28;20041;-95
2023/04/02 08:17:45;;;;;;;1.20;1.10;;;;;;;6.47;100.00;100231.06;5017768;28;20068;-93
2023/04/02 08:20:19;;;;;;;0.57;0.57;;;;;;;6.78;100.00;100291.44;5042834;28;20090;-93
2023/04/02 08:22:48;;;;;;;1.83;0.63;;;;;;;6.62;100.00;100259.50;5031968;28;20080;-94
2023/04/02 08:25:17;;;;;;;1.48;0.90;;;;;;;6.64;100.00;100268.22;5044404;28;20044;-94
2023/04/02 08:27:54;;;;;;;2.33;0.70;;;;;;;6.35;100.00;100236.75;5030496;28;20131;-93
2023/04/02 08:30:21;;;;;;;0.80;0.80;;;;;;;6.72;100.00;100319.75;5030705;28;20087;-93
2023/04/02 08:32:49;;;;;;;1.10;1.00;;;;;;;6.38;100.00;100264.72;5032183;28;20109;-93
2023/04/02 08:35:16;;;;;;;1.05;0.98;;;;;;;6.69;100.00;100324.19;5028766;28;20098;-93
2023/04/02 08:37:43;;;;;;;1.75;0.88;;;;;;;6.64;100.00;100328.72;5030431;28;20049;-94
2023/04/02 08:40:26;;;;;;;1.27;0.80;;;;;;;6.53;100.00;100338.75;5026686;28;20045;-93
2023/04/02 08:43:24;;;;;;;0.70;0.70;;;;;;;6.51;100.00;100337.94;5052040;28;20072;-92
2023/04/02 08:46:06;;;;;;;1.10;0.85;;;;;;;6.67;100.00;100341.81;5030176;28;20045;-93
2023/04/02 08:48:35;;;;;;;1.20;0.98;;;;;;;6.73;100.00;100347.78;5036516;28;20103;-92
2023/04/02 08:51:08;;;;;;;1.80;1.10;;;;;;;6.58;100.00;100320.19;5030663;28;20041;-92
2023/04/02 08:53:39;;;;;;;2.22;1.40;;;;;;;6.83;100.00;100354.47;5024338;28;20068;-90
2023/04/02 08:56:16;;;;;;;1.83;1.40;;;;;;;6.62;100.00;100308.63;5045456;28;20315;-91
2023/04/02 08:58:50;;;;;;;1.48;1.15;;;;;;;7.00;100.00;100374.06;5034149;28;20059;-92
2023/04/02 09:02:10;;;;;;;1.48;0.93;;;;;;;6.82;100.00;100347.47;5053481;28;20048;-93
2023/04/02 09:05:05;;;;;;;1.63;1.30;;;;;;;7.04;100.00;100375.69;5040022;28;20064;-92
2023/04/02 09:08:05;;;;;;;1.73;1.30;;;;;;;6.98;100.00;100381.16;5039647;28;20045;-93
2023/04/02 09:11:21;;;;;;;1.20;1.10;;;;;;;7.07;100.00;100397.59;5029168;28;20118;-92
2023/04/02 09:14:20;;;;;;;1.95;1.20;;;;;;;7.19;100.00;100394.53;5047251;28;20116;-93
2023/04/02 09:17:18;;;;;;;1.30;1.20;;;;;;;7.23;100.00;100406.69;5047688;28;20122;-93
2023/04/02 09:20:16;;;;;;;1.40;1.30;;;;;;;7.29;100.00;100411.75;5049701;28;20113;-91
2023/04/02 09:23:28;;;;;;;1.52;1.42;;;;;;;7.27;100.00;100408.28;5052985;28;20097;-93
2023/04/02 09:25:55;;;;;;;1.40;1.30;;;;;;;7.20;100.00;100410.28;5037074;28;20021;-90
2023/04/02 09:28:33;;;;;;;1.30;1.20;;;;;;;7.27;100.00;100413.56;5058068;28;20043;-89
2023/04/02 09:31:25;;;;;;;1.58;1.48;;;;;;;7.30;100.00;100424.88;5055848;28;20043;-90
2023/04/02 09:33:53;;;;;;;2.10;1.45;;;;;;;7.33;100.00;100430.03;5052996;28;20047;-94
2023/04/02 09:36:32;;;;;;;1.50;1.40;;;;;;;7.17;100.00;100417.44;5065109;28;20021;-92
2023/04/02 09:39:06;;;;;;;1.60;1.50;;;;;;;7.29;100.00;100446.00;5052103;28;20041;-93
2023/04/02 09:41:48;;;;;;;1.85;1.50;;;;;;;7.30;100.00;100450.34;5054329;28;20029;-90
2023/04/02 09:44:31;;;;;;;1.75;1.55;;;;;;;7.28;100.00;100439.84;5061829;28;20037;-92
2023/04/02 09:47:26;;;;;;;2.13;1.73;;;;;;;7.36;100.00;100458.06;5053379;28;20504;-94
2023/04/02 09:50:13;;;;;;;1.63;1.52;;;;;;;7.40;100.00;100473.69;5046049;28;20045;-92
2023/04/02 09:52:44;;;;;;;2.35;1.63;;;;;;;6.77;100.00;100371.31;5041134;28;20056;-92
2023/04/02 09:55:29;;;;;;;1.90;1.70;;;;;;;6.85;100.00;100363.19;5046234;28;20153;-92
2023/04/02 09:58:16;;;;;;;2.40;1.77;;;;;;;7.36;100.00;100453.66;5038081;28;20045;-94
2023/04/02 10:00:52;;;;;;;1.77;1.38;;;;;;;7.52;100.00;100480.34;5062333;28;20076;-93
2023/04/02 10:03:34;;;;;;;1.60;1.50;;;;;;;7.62;100.00;100492.31;5076108;28;20025;-92
2023/04/02 10:06:14;;;;;;;1.77;1.55;;;;;;;7.53;100.00;100455.72;5033284;28;20029;-93
2023/04/02 10:08:44;;;;;;;1.60;1.50;;;;;;;7.78;100.00;100487.38;5070221;28;20108;-95
2023/04/02 10:11:31;;;;;;;1.80;1.40;;;;;;;7.87;100.00;100509.94;5031255;28;20041;-93
2023/04/02 10:14:20;;;;;;;2.65;1.50;;;;;;;7.58;100.00;100445.00;5037279;28;20037;-94
2023/04/02 10:16:58;;;;;;;1.52;1.40;;;;;;;7.46;100.00;100413.81;5047769;28;20046;-94
2023/04/02 10:19:51;;;;;;;1.48;1.35;;;;;;;7.94;100.00;100482.44;5027513;28;20047;-94
2023/04/02 10:22:21;;;;;;;1.75;1.45;;;;;;;7.83;100.00;100471.41;5045563;28;20043;-94
2023/04/02 10:24:55;;;;;;;1.40;1.30;;;;;;;8.00;100.00;100501.56;5058319;28;20400;-93
2023/04/02 10:27:30;;;;;;;1.20;1.10;;;;;;;8.01;100.00;100521.75;5016932;28;20049;-93
2023/04/02 10:30:36;;;;;;;1.17;1.10;;;;;;;7.94;100.00;100529.91;5033076;28;20083;-94
2023/04/02 10:33:12;;;;;;;1.50;1.40;;;;;;;7.69;100.00;100540.41;4977923;28;20034;-93
2023/04/02 10:35:58;;;;;;;1.50;1.40;;;;;;;7.53;100.00;100547.97;5016882;28;20402;-94
2023/04/02 10:38:43;;;;;;;1.02;1.02;;;;;;;7.49;100.00;100537.56;5046155;28;20056;-92
2023/04/02 10:41:41;;;;;;;1.55;1.30;;;;;;;7.58;100.00;100558.34;5025597;28;20118;-93
2023/04/02 10:44:12;;;;;;;1.20;1.10;;;;;;;7.46;100.00;100556.09;5030861;28;20049;-93
2023/04/02 10:47:04;;;;;;;2.17;1.33;;;;;;;7.42;100.00;100565.00;5032523;28;20045;-93
2023/04/02 10:49:49;;;;;;;1.58;1.30;;;;;;;7.55;100.00;100566.38;5020924;28;20430;-94
2023/04/02 10:52:25;;;;;;;1.40;1.30;;;;;;;7.55;100.00;100572.50;5026058;28;20474;-93
2023/04/02 10:55:15;;;;;;;1.57;1.30;;;;;;;7.48;100.00;100585.91;5015426;28;20045;-94
2023/04/02 10:57:45;;;;;;;1.92;1.20;;;;;;;7.06;100.00;100535.41;5018422;28;20600;-92
2023/04/02 11:00:27;;;;;;;1.38;1.23;;;;;;;7.00;100.00;100561.00;5010237;28;20056;-93
2023/04/02 11:03:08;;;;;;;1.50;1.40;;;;;;;7.13;100.00;100589.59;5019367;28;20045;-91
2023/04/02 11:05:49;;;;;;;2.95;1.10;;;;;;;7.25;100.00;100594.50;5031806;28;20060;-92
2023/04/02 11:08:42;;;;;;;1.40;1.30;;;;;;;6.64;100.00;100489.25;5046058;28;20025;-90
2023/04/02 11:11:21;;;;;;;1.20;1.10;;;;;;;7.30;100.00;100595.22;5026543;28;20053;-91
2023/04/02 11:14:24;;;;;;;1.92;1.63;;;;;;;7.46;100.00;100588.56;5034028;28;20085;-91
2023/04/02 11:16:53;;;;;;;1.77;1.67;;;;;;;7.88;100.00;100602.16;5029237;28;20050;-92
2023/04/02 11:19:28;;;;;;;1.58;1.42;;;;;;;8.06;100.00;100611.22;5017187;28;20045;-92
2023/04/02 11:22:18;;;;;;;1.95;1.75;;;;;;;7.98;100.00;100597.47;5031135;28;20033;-93
2023/04/02 11:24:54;;;;;;;2.22;1.95;;;;;;;7.96;100.00;100584.31;5028736;28;20049;-92
2023/04/02 11:27:29;;;;;;;2.85;1.75;;;;;;;8.26;100.00;100629.91;5020598;28;20025;-92
2023/04/02 11:30:25;;;;;;;1.80;1.70;;;;;;;8.25;100.00;100619.41;5021334;28;20061;-92
2023/04/02 11:32:55;;;;;;;2.35;2.00;;;;;;;8.07;100.00;100611.19;5034604;28;20084;-92
2023/04/02 11:35:25;;;;;;;2.47;2.20;;;;;;;8.12;100.00;100628.66;5038588;28;20040;-94
2023/04/02 11:37:55;;;;;;;2.75;2.15;;;;;;;7.88;100.00;100617.97;5023255;28;20046;-92
2023/04/02 11:40:59;;;;;;;2.25;2.05;;;;;;;8.00;100.00;100649.25;5045309;28;20045;-95
2023/04/02 11:43:36;;;;;;;2.70;2.10;;;;;;;7.98;100.00;100656.34;5058907;28;20041;-92
2023/04/02 11:46:15;;;;;;;2.20;2.00;;;;;;;7.97;100.00;100659.88;5056037;28;20041;-94
2023/04/02 11:48:43;;;;;;;2.65;1.80;;;;;;;7.79;100.00;100659.59;5050084;28;20072;-94
2023/04/02 11:51:22;;;;;;;2.25;1.90;;;;;;;7.55;100.00;100643.66;5044362;28;20060;-94
2023/04/02 11:54:20;;;;;;;2.55;2.35;;;;;;;7.61;100.00;100667.16;5039837;28;20124;-93
2023/04/02 11:57:02;;;;;;;2.75;2.10;;;;;;;7.53;100.00;100653.38;5059160;28;20132;-95
2023/04/02 12:00:27;;;;;;;2.42;2.22;;;;;;;7.55;100.00;100682.31;5043667;28;20040;-92
2023/04/02 12:03:47;;;;;;;2.10;2.00;;;;;;;7.36;100.00;100689.88;5020991;28;20041;-93
2023/04/02 12:06:45;;;;;;;2.42;2.22;;;;;;;7.03;100.00;100679.41;5037092;28;20559;-93
2023/04/02 12:09:24;;;;;;;3.22;2.50;;;;;;;7.17;100.00;100707.13;4985713;28;20107;-93
2023/04/02 12:11:54;;;;;;;2.83;2.60;;;;;;;7.16;100.00;100708.03;5029916;28;20052;-92
2023/04/02 12:14:41;;;;;;;2.83;2.50;;;;;;;7.10;100.00;100714.31;5037629;28;20131;-92
2023/04/02 12:17:26;;;;;;;4.95;2.53;;;;;;;6.94;100.00;100694.56;5042563;28;20105;-92
2023/04/02 12:20:01;;;;;;;3.40;2.78;;;;;;;7.04;100.00;100714.50;5041730;28;20072;-93
2023/04/02 12:22:55;;;;;;;2.80;2.55;;;;;;;6.92;100.00;100697.28;5051676;28;20049;-92
2023/04/02 12:25:30;;;;;;;2.70;2.40;;;;;;;7.11;100.00;100728.34;5042591;28;20377;-93
2023/04/02 12:28:19;;;;;;;3.28;2.55;;;;;;;6.97;100.00;100668.16;5069604;28;20025;-93
2023/04/02 12:31:16;;;;;;;3.88;2.30;;;;;;;7.33;100.00;100727.72;5075157;28;20104;-93
2023/04/02 12:33:50;;;;;;;2.78;2.50;;;;;;;7.34;100.00;100710.16;5071380;28;20063;-93
2023/04/02 12:36:22;;;;;;;2.78;2.58;;;;;;;7.39;100.00;100722.28;5053107;28;20041;-93